Time;durP1;ratioP1;P1;durP2;ratioP2;P2;SDS_P1;SDS_P2;PMS_P1;PMS_P2;Temp;Humidity;BMP_temperature;BMP_pressure;BME280_temperature;BME280_humidity;BME280_pressure;Samples;Min_cycle;Max_cycle;Signal;HPM_P1;HPM_P2
2021/01/27 00:02:28;;;;;;;10.85;7.75;;;2.30;99.90;;;;;;5065549;28;20204;-73
2021/01/27 00:05:17;;;;;;;13.88;8.57;;;2.30;99.90;;;;;;5071185;28;20250;-74
2021/01/27 00:08:04;;;;;;;10.90;7.65;;;2.30;99.90;;;;;;5070409;28;20208;-73
2021/01/27 00:10:49;;;;;;;12.43;8.32;;;2.20;99.90;;;;;;5067486;28;20304;-73
2021/01/27 00:13:34;;;;;;;9.13;7.22;;;2.20;99.90;;;;;;5064158;28;20231;-72
2021/01/27 00:16:20;;;;;;;14.57;8.25;;;2.10;99.90;;;;;;5064575;28;20212;-74
2021/01/27 00:19:06;;;;;;;11.40;7.47;;;2.10;99.90;;;;;;5063588;28;20281;-72
2021/01/27 00:21:52;;;;;;;13.70;7.50;;;2.00;99.90;;;;;;5064238;28;20574;-72
2021/01/27 00:24:37;;;;;;;10.02;7.40;;;2.10;99.90;;;;;;5061309;28;20301;-73
2021/01/27 00:27:22;;;;;;;10.45;7.75;;;2.10;99.90;;;;;;5060623;28;20209;-73
2021/01/27 00:30:09;;;;;;;9.70;7.22;;;2.20;99.90;;;;;;5068083;28;20227;-73
2021/01/27 00:32:54;;;;;;;12.77;6.95;;;2.30;99.90;;;;;;5064610;28;20234;-71
2021/01/27 00:35:42;;;;;;;7.57;6.43;;;2.20;99.90;;;;;;5063192;28;20267;-73
2021/01/27 00:38:28;;;;;;;13.15;7.20;;;2.20;99.90;;;;;;5066772;28;20212;-74
2021/01/27 00:41:14;;;;;;;7.40;6.30;;;2.20;99.90;;;;;;5068712;28;20277;-74
2021/01/27 00:43:59;;;;;;;8.50;7.03;;;2.20;99.90;;;;;;5062418;28;20263;-74
2021/01/27 00:46:44;;;;;;;10.15;6.13;;;2.10;99.90;;;;;;5069596;28;20290;-73
2021/01/27 00:49:54;;;;;;;8.57;6.80;;;2.20;99.90;;;;;;5069825;28;20259;-74
2021/01/27 00:52:39;;;;;;;10.55;5.78;;;2.20;99.90;;;;;;5069370;28;20199;-73
2021/01/27 00:55:29;;;;;;;8.77;5.57;;;2.20;99.90;;;;;;5069599;28;20259;-74
2021/01/27 00:58:14;;;;;;;10.93;6.45;;;2.30;99.90;;;;;;5068459;28;20207;-74
2021/01/27 01:00:59;;;;;;;9.35;5.88;;;2.40;99.90;;;;;;5059132;28;20227;-72
2021/01/27 01:03:44;;;;;;;9.27;6.40;;;2.40;99.90;;;;;;5067960;28;20298;-72
2021/01/27 01:06:29;;;;;;;8.60;6.05;;;2.30;99.90;;;;;;5066432;28;20697;-74
2021/01/27 01:09:14;;;;;;;10.15;5.65;;;2.40;99.90;;;;;;5063773;28;20587;-74
2021/01/27 01:12:00;;;;;;;13.70;5.68;;;2.40;99.90;;;;;;5063751;28;20693;-73
2021/01/27 01:14:45;;;;;;;16.05;5.82;;;2.40;99.90;;;;;;5068363;28;20685;-73
2021/01/27 01:17:30;;;;;;;6.68;5.18;;;2.50;99.90;;;;;;5067799;28;20257;-74
2021/01/27 01:20:16;;;;;;;9.07;6.10;;;2.40;99.90;;;;;;5065817;28;20296;-73
2021/01/27 01:23:02;;;;;;;7.75;5.80;;;2.30;99.90;;;;;;5068684;28;20597;-74
2021/01/27 01:25:47;;;;;;;7.38;5.47;;;2.40;99.90;;;;;;5068180;28;20204;-73
2021/01/27 01:28:33;;;;;;;9.43;4.75;;;2.30;99.90;;;;;;5066756;28;20203;-74
2021/01/27 01:31:18;;;;;;;9.68;5.53;;;2.20;99.90;;;;;;5061053;28;20320;-73
2021/01/27 01:34:03;;;;;;;9.30;6.43;;;2.10;99.90;;;;;;5067083;28;20204;-73
2021/01/27 01:36:49;;;;;;;10.68;5.82;;;2.20;99.90;;;;;;5064716;28;20290;-73
2021/01/27 01:39:34;;;;;;;7.15;4.60;;;2.20;99.90;;;;;;5066112;28;20262;-73
2021/01/27 01:42:19;;;;;;;9.30;5.85;;;2.20;99.90;;;;;;5066319;28;20800;-73
2021/01/27 01:45:18;;;;;;;8.63;5.22;;;2.20;99.90;;;;;;5068984;28;20394;-73
2021/01/27 01:48:12;;;;;;;7.10;5.32;;;2.00;99.90;;;;;;5064869;28;20211;-73
2021/01/27 01:51:01;;;;;;;9.70;5.57;;;2.00;99.90;;;;;;5063445;28;20231;-74
2021/01/27 01:53:49;;;;;;;9.48;7.25;;;1.90;99.90;;;;;;5057036;28;20331;-74
2021/01/27 01:56:37;;;;;;;12.48;6.45;;;1.80;99.90;;;;;;5067971;28;20205;-72
2021/01/27 01:59:23;;;;;;;11.52;8.05;;;1.70;99.90;;;;;;5065918;28;20228;-74
2021/01/27 02:02:10;;;;;;;10.35;5.20;;;1.90;99.90;;;;;;5067667;28;20210;-73
2021/01/27 02:04:59;;;;;;;7.40;5.35;;;2.10;99.90;;;;;;5069031;28;20597;-73
2021/01/27 02:07:45;;;;;;;6.65;5.00;;;2.10;99.90;;;;;;5061352;28;20204;-72
2021/01/27 02:10:30;;;;;;;8.68;5.70;;;2.10;99.90;;;;;;5056664;28;20219;-71
2021/01/27 02:13:31;;;;;;;9.63;5.55;;;2.20;99.90;;;;;;5069220;28;20247;-72
2021/01/27 02:16:23;;;;;;;7.68;5.65;;;2.20;99.90;;;;;;5064924;28;20250;-73
2021/01/27 02:19:49;;;;;;;6.65;4.93;;;2.10;99.90;;;;;;5061013;28;20603;-73
2021/01/27 02:23:02;;;;;;;12.07;6.63;;;2.10;99.90;;;;;;5064217;28;20244;-74
2021/01/27 02:26:00;;;;;;;12.70;6.15;;;2.20;99.90;;;;;;5038102;28;20201;-73
2021/01/27 02:29:18;;;;;;;8.80;5.75;;;2.20;99.90;;;;;;5060990;28;20196;-73
2021/01/27 02:32:35;;;;;;;8.55;6.25;;;2.10;99.90;;;;;;5064781;28;20553;-73
2021/01/27 02:35:27;;;;;;;10.15;6.00;;;2.20;99.90;;;;;;5066529;28;20201;-73
2021/01/27 02:38:19;;;;;;;7.55;5.60;;;2.30;99.90;;;;;;5070804;28;20216;-72
2021/01/27 02:41:09;;;;;;;10.52;5.25;;;2.30;99.90;;;;;;5061353;28;20682;-73
2021/01/27 02:43:58;;;;;;;8.85;5.95;;;2.10;99.90;;;;;;5064949;28;20266;-73
2021/01/27 02:46:51;;;;;;;9.48;5.97;;;2.10;99.90;;;;;;5064333;28;20207;-73
2021/01/27 02:49:43;;;;;;;10.48;6.40;;;2.10;99.90;;;;;;5059467;28;20376;-73
2021/01/27 02:52:36;;;;;;;20.40;5.97;;;2.20;99.90;;;;;;5070687;28;20205;-74
2021/01/27 02:55:27;;;;;;;11.73;5.70;;;2.10;99.90;;;;;;5068669;28;20274;-72
2021/01/27 02:58:20;;;;;;;10.25;6.00;;;2.10;99.90;;;;;;5069929;28;20275;-74
2021/01/27 03:01:08;;;;;;;11.02;6.40;;;2.10;99.90;;;;;;5064850;28;20254;-73
2021/01/27 03:03:59;;;;;;;6.28;5.35;;;2.00;99.90;;;;;;5069419;28;20270;-73
2021/01/27 03:06:46;;;;;;;7.65;5.28;;;1.90;99.90;;;;;;5064191;28;20259;-72
2021/01/27 03:09:39;;;;;;;6.88;4.95;;;2.00;99.90;;;;;;5068097;28;20585;-74
2021/01/27 03:12:24;;;;;;;7.90;5.93;;;1.90;99.90;;;;;;5071659;28;20251;-73
2021/01/27 03:15:11;;;;;;;9.45;6.00;;;1.90;99.90;;;;;;5064536;28;20240;-73
2021/01/27 03:18:00;;;;;;;9.15;5.35;;;1.90;99.90;;;;;;5067306;28;20223;-73
2021/01/27 03:20:47;;;;;;;13.40;5.65;;;2.00;99.90;;;;;;5067228;28;20231;-73
2021/01/27 03:23:38;;;;;;;8.75;5.88;;;1.90;99.90;;;;;;5065677;28;20215;-74
2021/01/27 03:26:28;;;;;;;11.38;5.82;;;1.90;99.90;;;;;;5067550;28;20738;-74
2021/01/27 03:29:33;;;;;;;6.88;5.15;;;1.80;99.90;;;;;;5064834;28;20305;-74
2021/01/27 03:32:25;;;;;;;9.70;5.40;;;1.90;99.90;;;;;;5068731;28;20266;-74
2021/01/27 03:35:14;;;;;;;9.45;5.75;;;1.90;99.90;;;;;;5065940;28;20675;-72
2021/01/27 03:38:01;;;;;;;10.02;5.28;;;2.00;99.90;;;;;;5064323;28;20216;-73
2021/01/27 03:40:50;;;;;;;8.02;5.25;;;2.10;99.90;;;;;;5056592;28;20463;-73
2021/01/27 03:43:41;;;;;;;8.02;5.20;;;2.20;99.90;;;;;;5066804;28;20209;-72
2021/01/27 03:46:33;;;;;;;11.13;5.47;;;2.30;99.90;;;;;;5068319;28;20296;-73
2021/01/27 03:49:22;;;;;;;6.68;4.53;;;2.20;99.90;;;;;;5068013;28;20224;-73
2021/01/27 03:52:11;;;;;;;8.07;6.43;;;2.10;99.90;;;;;;5068482;28;20588;-73
2021/01/27 03:55:01;;;;;;;8.63;5.43;;;1.90;99.90;;;;;;5059652;28;20204;-74
2021/01/27 03:57:57;;;;;;;6.15;4.90;;;1.90;99.90;;;;;;5058586;28;20254;-73
2021/01/27 04:00:46;;;;;;;8.15;5.25;;;1.80;99.90;;;;;;5059899;28;20247;-74
2021/01/27 04:03:31;;;;;;;7.95;5.47;;;1.80;99.90;;;;;;5066349;28;20270;-74
2021/01/27 04:06:16;;;;;;;12.40;5.60;;;1.80;99.90;;;;;;5064532;28;20281;-73
2021/01/27 04:09:02;;;;;;;8.43;5.03;;;1.80;99.90;;;;;;5064815;28;20302;-73
2021/01/27 04:11:47;;;;;;;10.18;5.85;;;1.90;99.90;;;;;;5066583;28;20586;-73
2021/01/27 04:14:32;;;;;;;6.72;4.72;;;2.00;99.90;;;;;;5065078;28;20770;-73
2021/01/27 04:17:28;;;;;;;8.77;5.32;;;2.20;99.90;;;;;;5065221;28;20205;-71
2021/01/27 04:20:14;;;;;;;8.02;5.60;;;2.20;99.90;;;;;;5063004;28;20302;-74
2021/01/27 04:22:59;;;;;;;8.90;5.20;;;2.20;99.90;;;;;;5062546;28;20207;-73
2021/01/27 04:25:44;;;;;;;15.65;5.15;;;2.10;99.90;;;;;;5059860;28;20204;-74
2021/01/27 04:28:29;;;;;;;8.90;4.78;;;2.00;99.90;;;;;;5068380;28;20204;-74
2021/01/27 04:31:15;;;;;;;7.90;4.97;;;2.00;99.90;;;;;;5062236;28;20200;-74
2021/01/27 04:34:00;;;;;;;9.60;4.97;;;2.00;99.90;;;;;;5060447;28;20208;-74
2021/01/27 04:36:45;;;;;;;6.88;4.85;;;2.10;99.90;;;;;;5057176;28;20618;-73
2021/01/27 04:39:31;;;;;;;9.65;5.38;;;2.00;99.90;;;;;;5066294;28;20524;-74
2021/01/27 04:42:17;;;;;;;7.72;5.28;;;1.90;99.90;;;;;;5069455;28;20203;-74
2021/01/27 04:45:07;;;;;;;10.82;4.80;;;2.00;99.90;;;;;;5067352;28;20277;-72
2021/01/27 04:47:58;;;;;;;18.02;5.22;;;2.10;99.90;;;;;;5066604;28;20697;-73
2021/01/27 04:50:51;;;;;;;8.35;5.32;;;2.10;99.90;;;;;;5065929;28;20224;-73
2021/01/27 04:53:50;;;;;;;6.75;5.00;;;2.20;99.90;;;;;;5064444;28;20247;-73
2021/01/27 04:57:05;;;;;;;8.43;4.78;;;2.00;99.90;;;;;;5059500;28;20232;-73
2021/01/27 05:00:07;;;;;;;7.45;4.95;;;2.10;99.90;;;;;;5061287;28;20232;-73
2021/01/27 05:03:20;;;;;;;7.07;5.63;;;2.10;99.90;;;;;;5062183;28;20212;-73
2021/01/27 05:06:12;;;;;;;7.38;4.65;;;2.00;99.90;;;;;;5063344;28;20208;-73
2021/01/27 05:09:05;;;;;;;11.75;5.32;;;2.10;99.90;;;;;;5066774;28;20204;-73
2021/01/27 05:11:53;;;;;;;6.93;4.43;;;2.10;99.90;;;;;;5067805;28;20230;-73
2021/01/27 05:14:39;;;;;;;6.82;4.32;;;2.10;99.90;;;;;;5068374;28;20574;-73
2021/01/27 05:17:24;;;;;;;7.55;5.00;;;2.10;99.90;;;;;;5067622;28;20251;-72
2021/01/27 05:20:11;;;;;;;10.98;5.13;;;2.10;99.90;;;;;;5068288;28;20248;-73
2021/01/27 05:22:58;;;;;;;10.10;5.45;;;2.20;99.90;;;;;;5068031;28;20211;-72
2021/01/27 05:25:47;;;;;;;6.45;5.10;;;2.10;99.90;;;;;;5061888;28;20231;-72
2021/01/27 05:28:37;;;;;;;6.10;5.07;;;2.10;99.90;;;;;;5064613;28;20263;-72
2021/01/27 05:31:23;;;;;;;6.65;4.93;;;2.20;99.90;;;;;;5062526;28;20685;-73
2021/01/27 05:34:07;;;;;;;7.25;4.18;;;2.30;99.90;;;;;;5059805;28;20205;-73
2021/01/27 05:36:53;;;;;;;7.18;4.70;;;2.30;99.90;;;;;;5061860;28;20457;-73
2021/01/27 05:39:40;;;;;;;6.35;4.50;;;2.30;99.90;;;;;;5065832;28;20227;-73
2021/01/27 05:42:30;;;;;;;6.20;4.70;;;2.30;99.90;;;;;;5065354;28;20251;-73
2021/01/27 05:45:33;;;;;;;7.30;4.65;;;2.30;99.90;;;;;;5056933;28;20267;-73
2021/01/27 05:48:30;;;;;;;9.52;4.90;;;2.30;99.90;;;;;;5060079;28;20207;-73
2021/01/27 05:51:18;;;;;;;7.57;4.65;;;2.40;99.90;;;;;;5064810;28;20248;-73
2021/01/27 05:54:20;;;;;;;6.57;4.63;;;2.30;99.90;;;;;;5064844;28;20201;-73
2021/01/27 05:57:12;;;;;;;11.38;6.00;;;2.30;99.90;;;;;;5060265;28;20224;-73
2021/01/27 06:00:08;;;;;;;9.75;5.70;;;2.20;99.90;;;;;;5057992;28;20751;-72
2021/01/27 06:02:54;;;;;;;6.90;5.05;;;2.20;99.90;;;;;;5062109;28;20204;-73
2021/01/27 06:05:40;;;;;;;7.07;5.07;;;2.20;99.90;;;;;;5062315;28;20220;-73
2021/01/27 06:08:25;;;;;;;6.43;4.20;;;2.20;99.90;;;;;;5064558;28;20298;-73
2021/01/27 06:11:11;;;;;;;7.40;5.45;;;2.10;99.90;;;;;;5062416;28;20235;-73
2021/01/27 06:14:11;;;;;;;8.75;6.70;;;2.20;99.90;;;;;;5068250;28;20576;-73
2021/01/27 06:16:57;;;;;;;7.13;5.70;;;2.30;99.90;;;;;;5071216;28;20211;-73
2021/01/27 06:19:42;;;;;;;9.02;6.15;;;2.30;99.90;;;;;;5063734;28;20224;-73
2021/01/27 06:22:48;;;;;;;7.00;5.65;;;2.40;99.90;;;;;;5062880;28;20273;-73
2021/01/27 06:25:47;;;;;;;13.05;5.82;;;2.50;99.90;;;;;;5068016;28;20215;-73
2021/01/27 06:28:52;;;;;;;9.43;5.60;;;2.50;99.90;;;;;;5068353;28;20204;-74
2021/01/27 06:32:02;;;;;;;9.00;5.78;;;2.60;99.90;;;;;;5058028;28;20211;-74
2021/01/27 06:35:13;;;;;;;11.85;6.35;;;2.60;99.90;;;;;;5057072;28;20252;-73
2021/01/27 06:38:36;;;;;;;8.95;5.20;;;2.70;99.90;;;;;;5059061;28;20205;-73
2021/01/27 06:41:43;;;;;;;9.73;6.53;;;2.80;99.90;;;;;;5002662;28;20213;-73
2021/01/27 06:44:44;;;;;;;11.45;6.25;;;2.70;99.90;;;;;;5065505;28;20312;-73
2021/01/27 06:48:03;;;;;;;9.98;6.15;;;2.80;99.90;;;;;;5063714;28;20208;-72
2021/01/27 06:51:25;;;;;;;14.15;6.30;;;2.70;99.90;;;;;;5071242;28;20634;-73
2021/01/27 06:54:39;;;;;;;12.73;6.35;;;2.60;99.90;;;;;;5036782;28;20244;-74
2021/01/27 06:57:32;;;;;;;11.05;6.03;;;2.60;99.90;;;;;;5063465;28;20750;-73
2021/01/27 07:00:36;;;;;;;12.82;6.28;;;2.60;99.90;;;;;;5064374;28;20271;-72
2021/01/27 07:03:44;;;;;;;10.07;5.35;;;2.70;99.90;;;;;;5067724;28;20199;-72
2021/01/27 07:07:04;;;;;;;9.07;5.25;;;2.70;99.90;;;;;;5066863;28;20274;-73
2021/01/27 07:10:28;;;;;;;9.48;5.43;;;2.80;99.90;;;;;;5062860;28;20343;-74
2021/01/27 07:13:41;;;;;;;10.80;5.95;;;2.80;99.90;;;;;;5069708;28;20211;-73
2021/01/27 07:16:53;;;;;;;9.18;5.50;;;2.80;99.90;;;;;;5040224;28;20204;-73
2021/01/27 07:20:18;;;;;;;9.40;4.85;;;2.80;99.90;;;;;;5049922;28;20263;-73
2021/01/27 07:23:13;;;;;;;9.32;5.30;;;2.70;99.90;;;;;;5058155;28;20205;-73
2021/01/27 07:26:06;;;;;;;7.13;5.30;;;2.70;99.90;;;;;;5059120;28;20268;-73
2021/01/27 07:28:59;;;;;;;14.05;5.70;;;2.70;99.90;;;;;;5067125;28;20577;-73
2021/01/27 07:31:52;;;;;;;10.38;4.55;;;2.80;99.90;;;;;;5064030;28;20690;-73
2021/01/27 07:34:43;;;;;;;6.75;4.93;;;2.80;99.90;;;;;;5063311;28;20200;-73
2021/01/27 07:37:34;;;;;;;5.50;4.40;;;2.90;99.90;;;;;;5067757;28;20278;-73
2021/01/27 07:40:24;;;;;;;10.23;4.50;;;3.00;99.90;;;;;;5064607;28;20230;-73
2021/01/27 07:43:15;;;;;;;6.93;5.10;;;3.00;99.90;;;;;;5061729;28;20211;-73
2021/01/27 07:46:01;;;;;;;9.50;4.30;;;2.90;99.90;;;;;;5067130;28;20250;-73
2021/01/27 07:48:53;;;;;;;6.07;4.40;;;2.90;99.90;;;;;;5067150;28;20243;-73
2021/01/27 07:51:48;;;;;;;7.75;5.30;;;2.90;99.90;;;;;;5069333;28;20276;-74
2021/01/27 07:54:42;;;;;;;8.50;5.30;;;2.90;99.90;;;;;;5065254;28;20231;-73
2021/01/27 07:57:44;;;;;;;6.72;4.10;;;2.80;99.90;;;;;;5062276;28;20247;-73
2021/01/27 08:00:34;;;;;;;10.85;5.40;;;2.90;99.90;;;;;;5067777;28;20286;-73
2021/01/27 08:03:39;;;;;;;6.40;4.40;;;2.80;99.90;;;;;;5067729;28;20212;-73
2021/01/27 08:06:26;;;;;;;6.72;4.00;;;2.80;99.90;;;;;;5064630;28;20219;-74
2021/01/27 08:09:12;;;;;;;6.60;4.43;;;2.60;99.90;;;;;;5066839;28;20224;-74
2021/01/27 08:12:13;;;;;;;5.20;3.75;;;2.70;99.90;;;;;;5066939;28;20251;-73
2021/01/27 08:15:09;;;;;;;5.05;3.78;;;2.70;99.90;;;;;;5065985;28;20238;-73
2021/01/27 08:18:11;;;;;;;5.68;3.90;;;2.70;99.90;;;;;;5065088;28;20717;-73
2021/01/27 08:21:28;;;;;;;7.75;4.15;;;2.70;99.90;;;;;;5069998;28;20240;-73
2021/01/27 08:24:47;;;;;;;5.07;3.55;;;2.70;99.90;;;;;;5064540;28;20457;-72
2021/01/27 08:27:38;;;;;;;7.22;3.67;;;2.70;99.90;;;;;;5062259;28;20200;-74
2021/01/27 08:30:25;;;;;;;6.03;4.47;;;2.70;99.90;;;;;;5065775;28;20224;-74
2021/01/27 08:33:34;;;;;;;8.05;3.75;;;2.80;99.90;;;;;;5060959;28;20208;-73
2021/01/27 08:36:22;;;;;;;5.95;3.63;;;2.90;99.90;;;;;;5062724;28;20279;-73
2021/01/27 08:39:11;;;;;;;6.93;4.05;;;2.80;99.90;;;;;;5064704;28;20228;-73
2021/01/27 08:42:00;;;;;;;8.48;4.07;;;2.90;99.90;;;;;;5068133;28;20212;-73
2021/01/27 08:44:47;;;;;;;9.10;3.60;;;2.90;99.90;;;;;;5060922;28;20216;-73
2021/01/27 08:47:38;;;;;;;10.60;3.88;;;2.90;99.90;;;;;;5060863;28;20200;-73
2021/01/27 08:50:42;;;;;;;5.45;3.28;;;3.00;99.90;;;;;;5065943;28;20235;-74
2021/01/27 08:53:48;;;;;;;8.68;2.78;;;3.00;99.90;;;;;;5066663;28;20203;-73
2021/01/27 08:57:07;;;;;;;4.40;2.42;;;3.00;99.90;;;;;;5064355;28;20240;-74
2021/01/27 09:00:03;;;;;;;4.13;2.53;;;2.60;99.90;;;;;;5065207;28;20721;-73
2021/01/27 09:02:54;;;;;;;6.43;2.97;;;2.60;99.90;;;;;;5068177;28;20644;-73
2021/01/27 09:05:40;;;;;;;9.10;3.55;;;2.50;99.90;;;;;;5068621;28;20223;-73
2021/01/27 09:08:32;;;;;;;4.85;3.00;;;2.60;99.90;;;;;;5066233;28;20695;-74
2021/01/27 09:11:19;;;;;;;6.25;2.85;;;2.70;99.90;;;;;;5066260;28;20763;-73
2021/01/27 09:14:07;;;;;;;5.28;3.08;;;2.80;99.90;;;;;;5059956;28;20208;-74
2021/01/27 09:16:54;;;;;;;4.85;3.00;;;2.90;99.90;;;;;;5066825;28;20275;-73
2021/01/27 09:19:39;;;;;;;5.57;3.08;;;2.90;99.90;;;;;;5064122;28;20361;-73
2021/01/27 09:22:25;;;;;;;5.30;3.05;;;2.90;99.90;;;;;;5065949;28;20204;-74
2021/01/27 09:25:12;;;;;;;9.30;3.78;;;2.90;99.90;;;;;;5067378;28;20748;-73
2021/01/27 09:28:02;;;;;;;5.85;3.00;;;2.80;99.90;;;;;;5061016;28;20296;-73
2021/01/27 09:30:47;;;;;;;4.30;3.25;;;2.90;99.90;;;;;;5066908;28;20633;-73
2021/01/27 09:33:33;;;;;;;5.10;3.63;;;3.00;99.90;;;;;;5058278;28;20267;-73
2021/01/27 09:36:23;;;;;;;6.65;4.00;;;2.90;99.90;;;;;;5055439;28;20223;-72
2021/01/27 09:39:09;;;;;;;14.40;5.53;;;3.00;99.90;;;;;;5060477;28;20244;-73
2021/01/27 09:41:56;;;;;;;9.55;4.60;;;3.10;99.90;;;;;;5064514;28;20200;-73
2021/01/27 09:44:42;;;;;;;5.60;4.00;;;3.10;99.90;;;;;;5061908;28;20271;-73
2021/01/27 09:47:28;;;;;;;5.10;4.03;;;3.10;99.90;;;;;;5063324;28;20248;-73
2021/01/27 09:50:14;;;;;;;10.23;4.93;;;3.10;99.90;;;;;;5063671;28;20221;-74
2021/01/27 09:53:02;;;;;;;5.78;3.92;;;3.00;99.90;;;;;;5061613;28;20212;-73
2021/01/27 09:55:47;;;;;;;5.13;3.90;;;3.10;99.90;;;;;;5066319;28;20227;-73
2021/01/27 09:58:32;;;;;;;5.55;4.60;;;3.10;99.90;;;;;;5065508;28;20199;-74
2021/01/27 10:01:19;;;;;;;8.57;5.47;;;3.10;99.90;;;;;;5065470;28;20203;-74
2021/01/27 10:04:09;;;;;;;5.00;3.97;;;3.10;99.90;;;;;;5062983;28;20313;-75
2021/01/27 10:07:06;;;;;;;6.00;4.05;;;3.00;99.90;;;;;;5064192;28;20648;-74
2021/01/27 10:09:57;;;;;;;4.40;3.42;;;2.80;99.90;;;;;;5062429;28;20338;-72
2021/01/27 10:12:44;;;;;;;10.30;3.83;;;2.70;99.90;;;;;;5064093;28;20203;-74
2021/01/27 10:15:31;;;;;;;4.80;2.95;;;2.60;99.90;;;;;;5064700;28;20208;-74
2021/01/27 10:18:22;;;;;;;3.60;3.00;;;2.50;99.90;;;;;;5066579;28;20199;-74
2021/01/27 10:21:09;;;;;;;4.65;3.05;;;2.50;99.90;;;;;;5067014;28;20207;-74
2021/01/27 10:23:55;;;;;;;5.00;3.15;;;2.50;99.90;;;;;;5065308;28;20391;-74
2021/01/27 10:26:42;;;;;;;4.95;3.58;;;2.50;99.90;;;;;;5066135;28;20232;-74
2021/01/27 10:29:36;;;;;;;4.43;2.90;;;2.60;99.90;;;;;;5067813;28;20274;-73
2021/01/27 10:32:35;;;;;;;4.47;2.80;;;2.70;99.90;;;;;;5067184;28;20215;-74
2021/01/27 10:35:30;;;;;;;3.67;2.33;;;2.70;99.90;;;;;;5058176;28;20196;-74
2021/01/27 10:38:21;;;;;;;3.80;2.50;;;2.70;99.90;;;;;;5063691;28;20247;-73
2021/01/27 10:41:12;;;;;;;5.40;3.15;;;2.70;99.90;;;;;;5062196;28;20670;-73
2021/01/27 10:44:28;;;;;;;5.53;2.70;;;2.70;99.90;;;;;;5056614;28;20282;-74
2021/01/27 10:47:24;;;;;;;3.45;2.50;;;2.80;99.90;;;;;;5065474;28;20204;-73
2021/01/27 10:50:11;;;;;;;3.85;2.47;;;2.90;99.90;;;;;;5060303;28;20274;-74
2021/01/27 10:52:58;;;;;;;3.65;2.20;;;3.00;99.90;;;;;;5059095;28;20318;-74
2021/01/27 10:55:47;;;;;;;3.65;2.53;;;2.90;99.90;;;;;;5066250;28;20203;-74
2021/01/27 10:58:33;;;;;;;3.60;2.50;;;2.90;99.90;;;;;;5063169;28;20219;-73
2021/01/27 11:01:19;;;;;;;3.95;2.30;;;2.90;99.90;;;;;;5071407;28;20698;-73
2021/01/27 11:04:04;;;;;;;2.83;2.60;;;2.90;99.90;;;;;;5069409;28;20227;-73
2021/01/27 11:06:49;;;;;;;3.30;2.70;;;2.90;99.90;;;;;;5068630;28;20204;-74
2021/01/27 11:09:34;;;;;;;4.30;2.70;;;2.90;99.90;;;;;;5070183;28;20270;-73
2021/01/27 11:12:19;;;;;;;3.42;2.85;;;2.90;99.90;;;;;;5070754;28;20653;-73
2021/01/27 11:15:06;;;;;;;2.95;2.65;;;2.90;99.90;;;;;;5071038;28;20219;-73
2021/01/27 11:17:52;;;;;;;4.32;2.50;;;2.90;99.90;;;;;;5071201;28;20204;-73
2021/01/27 11:20:37;;;;;;;5.28;2.50;;;2.80;99.90;;;;;;5064966;28;20219;-73
2021/01/27 11:23:22;;;;;;;4.40;2.72;;;2.60;99.90;;;;;;5070934;28;20728;-73
2021/01/27 11:26:07;;;;;;;3.97;2.95;;;2.60;99.90;;;;;;5070502;28;20228;-74
2021/01/27 11:28:52;;;;;;;6.20;3.72;;;2.60;99.90;;;;;;5068137;28;20284;-74
2021/01/27 11:31:38;;;;;;;3.65;2.90;;;2.70;99.90;;;;;;5070645;28;20301;-73
2021/01/27 11:34:23;;;;;;;4.50;3.70;;;2.70;99.90;;;;;;5066936;28;20658;-74
2021/01/27 11:37:09;;;;;;;3.00;2.42;;;2.80;99.90;;;;;;5063820;28;20221;-73
2021/01/27 11:39:54;;;;;;;3.63;2.92;;;2.80;99.90;;;;;;5063972;28;20301;-74
2021/01/27 11:42:39;;;;;;;4.70;3.03;;;2.90;99.90;;;;;;5069717;28;20212;-73
2021/01/27 11:45:24;;;;;;;5.07;3.05;;;2.90;99.90;;;;;;5062456;28;20619;-74
2021/01/27 11:48:11;;;;;;;3.00;2.25;;;3.10;99.90;;;;;;5068353;28;20713;-72
2021/01/27 11:50:56;;;;;;;2.55;2.10;;;3.10;99.90;;;;;;5066712;28;20274;-73
2021/01/27 11:53:42;;;;;;;4.65;2.65;;;3.00;99.90;;;;;;5066768;28;20199;-73
2021/01/27 11:56:28;;;;;;;2.63;2.03;;;3.10;99.90;;;;;;5064365;28;20210;-74
2021/01/27 11:59:13;;;;;;;2.25;1.90;;;3.00;99.90;;;;;;5062425;28;20757;-73
2021/01/27 12:01:59;;;;;;;2.50;2.17;;;3.10;99.90;;;;;;5070581;28;20652;-74
2021/01/27 12:04:45;;;;;;;1.80;1.60;;;3.20;99.90;;;;;;5069354;28;20220;-74
2021/01/27 12:07:30;;;;;;;2.95;1.95;;;3.20;99.90;;;;;;5062534;28;20666;-73
2021/01/27 12:10:16;;;;;;;2.80;1.98;;;3.10;99.90;;;;;;5069561;28;20326;-74
2021/01/27 12:13:01;;;;;;;2.90;1.80;;;3.00;99.90;;;;;;5071696;28;20216;-74
2021/01/27 12:15:48;;;;;;;3.40;1.42;;;3.10;99.90;;;;;;5069187;28;20199;-73
2021/01/27 12:18:33;;;;;;;2.33;1.52;;;3.10;99.90;;;;;;5068956;28;20669;-73
2021/01/27 12:21:19;;;;;;;3.80;2.05;;;3.10;99.90;;;;;;5068683;28;20295;-73
2021/01/27 12:24:05;;;;;;;2.03;1.63;;;3.10;99.90;;;;;;5064855;28;20212;-73
2021/01/27 12:26:50;;;;;;;2.28;1.70;;;3.10;99.90;;;;;;5064801;28;20223;-74
2021/01/27 12:29:35;;;;;;;2.28;1.75;;;3.10;99.90;;;;;;5063768;28;20224;-73
2021/01/27 12:32:20;;;;;;;2.78;1.90;;;3.10;99.90;;;;;;5065887;28;20209;-74
2021/01/27 12:35:06;;;;;;;2.80;2.00;;;3.10;99.90;;;;;;5068001;28;20250;-73
2021/01/27 12:37:52;;;;;;;3.33;2.40;;;3.00;99.90;;;;;;5068192;28;20240;-74
2021/01/27 12:40:37;;;;;;;4.63;2.30;;;3.10;99.90;;;;;;5066800;28;20339;-73
2021/01/27 12:43:22;;;;;;;3.15;2.55;;;3.10;99.90;;;;;;5061935;28;20732;-72
2021/01/27 12:46:07;;;;;;;3.83;2.88;;;3.10;99.90;;;;;;5067130;28;20244;-73
2021/01/27 12:48:52;;;;;;;6.28;2.78;;;3.20;99.90;;;;;;5064391;28;20208;-73
2021/01/27 12:51:37;;;;;;;2.90;2.30;;;3.30;99.90;;;;;;5061897;28;20203;-74
2021/01/27 12:54:23;;;;;;;3.75;2.78;;;3.10;99.90;;;;;;5062938;28;20205;-73
2021/01/27 12:57:08;;;;;;;2.95;2.50;;;3.00;99.90;;;;;;5067700;28;20211;-73
2021/01/27 12:59:53;;;;;;;2.83;2.47;;;2.90;99.90;;;;;;5060991;28;20255;-73
2021/01/27 13:02:39;;;;;;;3.38;2.70;;;2.80;99.90;;;;;;5063618;28;20207;-73
2021/01/27 13:05:25;;;;;;;3.55;2.70;;;2.80;99.90;;;;;;5062371;28;20227;-74
2021/01/27 13:08:11;;;;;;;3.53;2.83;;;2.90;99.90;;;;;;5063112;28;20205;-73
2021/01/27 13:10:57;;;;;;;3.50;2.80;;;2.70;99.90;;;;;;5068450;28;20219;-73
2021/01/27 13:13:43;;;;;;;4.43;3.92;;;2.80;99.90;;;;;;5064939;28;20254;-73
2021/01/27 13:16:27;;;;;;;5.00;4.32;;;2.70;99.90;;;;;;5066340;28;20559;-74
2021/01/27 13:19:12;;;;;;;5.20;4.20;;;2.80;99.90;;;;;;5056766;28;20258;-73
2021/01/27 13:21:57;;;;;;;4.43;3.55;;;2.90;99.90;;;;;;5068440;28;20245;-74
2021/01/27 13:24:44;;;;;;;5.32;3.42;;;3.00;99.90;;;;;;5061438;28;20227;-73
2021/01/27 13:27:30;;;;;;;3.55;3.22;;;3.00;99.90;;;;;;5059639;28;20280;-74
2021/01/27 13:30:18;;;;;;;4.50;4.05;;;3.10;99.90;;;;;;5064560;28;20258;-73
2021/01/27 13:33:05;;;;;;;5.82;4.35;;;3.00;99.90;;;;;;5064746;28;20303;-74
2021/01/27 13:35:51;;;;;;;4.75;4.05;;;2.90;99.90;;;;;;5067290;28;20232;-73
2021/01/27 13:38:36;;;;;;;6.57;4.40;;;3.00;99.90;;;;;;5065929;28;20258;-73
2021/01/27 13:41:21;;;;;;;3.75;3.05;;;3.00;99.90;;;;;;5067071;28;20231;-73
2021/01/27 13:44:07;;;;;;;5.45;4.47;;;2.90;99.90;;;;;;5058949;28;20751;-73
2021/01/27 13:46:52;;;;;;;5.47;4.63;;;2.80;99.90;;;;;;5065632;28;20246;-73
2021/01/27 13:49:37;;;;;;;7.03;4.78;;;2.70;99.90;;;;;;5062501;28;20273;-73
2021/01/27 13:52:22;;;;;;;8.10;5.80;;;2.70;99.90;;;;;;5058486;28;20231;-73
2021/01/27 13:55:08;;;;;;;6.18;4.88;;;2.60;99.90;;;;;;5067607;28;20559;-73
2021/01/27 13:57:53;;;;;;;10.23;4.43;;;2.50;99.90;;;;;;5063825;28;20537;-73
2021/01/27 14:00:40;;;;;;;6.07;5.47;;;2.60;99.90;;;;;;5067080;28;20286;-73
2021/01/27 14:03:25;;;;;;;5.95;5.32;;;2.70;99.90;;;;;;5066441;28;20266;-73
2021/01/27 14:06:10;;;;;;;5.72;5.18;;;2.70;99.90;;;;;;5064836;28;20331;-72
2021/01/27 14:08:55;;;;;;;6.75;6.03;;;2.80;99.90;;;;;;5064807;28;20243;-73
2021/01/27 14:11:40;;;;;;;6.13;5.38;;;2.70;99.90;;;;;;5062791;28;20384;-72
2021/01/27 14:14:25;;;;;;;5.70;5.10;;;2.80;99.90;;;;;;5065317;28;20196;-74
2021/01/27 14:17:11;;;;;;;5.15;4.63;;;2.70;99.90;;;;;;5063001;28;20763;-74
2021/01/27 14:19:57;;;;;;;5.18;4.10;;;2.70;99.90;;;;;;5066305;28;20304;-74
2021/01/27 14:22:42;;;;;;;7.38;5.90;;;2.70;99.90;;;;;;5064250;28;20255;-74
2021/01/27 14:25:27;;;;;;;5.05;4.55;;;2.60;99.90;;;;;;5063746;28;20274;-74
2021/01/27 14:28:12;;;;;;;6.20;5.53;;;2.50;99.90;;;;;;5064207;28;20216;-72
2021/01/27 14:30:57;;;;;;;5.30;4.72;;;2.60;99.90;;;;;;5066569;28;20232;-73
2021/01/27 14:33:44;;;;;;;6.03;4.78;;;2.70;99.90;;;;;;5067845;28;20297;-74
2021/01/27 14:36:29;;;;;;;9.13;5.38;;;2.60;99.90;;;;;;5069753;28;20203;-74
2021/01/27 14:39:14;;;;;;;6.00;5.40;;;2.60;99.90;;;;;;5067573;28;20701;-73
2021/01/27 14:41:59;;;;;;;6.22;5.30;;;2.60;99.90;;;;;;5062952;28;20212;-73
2021/01/27 14:44:45;;;;;;;4.70;4.22;;;2.60;99.90;;;;;;5067733;28;20228;-73
2021/01/27 14:47:30;;;;;;;6.43;5.25;;;2.60;99.90;;;;;;5068516;28;20257;-73
2021/01/27 14:50:17;;;;;;;6.10;4.95;;;2.70;99.90;;;;;;5068369;28;20582;-73
2021/01/27 14:53:03;;;;;;;5.72;5.20;;;2.80;99.90;;;;;;5069295;28;20200;-73
2021/01/27 14:55:47;;;;;;;9.30;5.00;;;2.80;99.90;;;;;;5062796;28;20200;-73
2021/01/27 14:58:33;;;;;;;6.25;4.82;;;2.90;99.90;;;;;;5068226;28;20211;-74